Time;durP1;ratioP1;P1;durP2;ratioP2;P2;SDS_P1;SDS_P2;PMS_P1;PMS_P2;Temp;Humidity;BMP_temperature;BMP_pressure;BME280_temperature;BME280_humidity;BME280_pressure;Samples;Min_cycle;Max_cycle;Signal;HPM_P1;HPM_P2
2023/02/24 00:00:50;;;;;;;;;;;;;;;28.25;69.23;101076.69;5094415;27;69155;-40
2023/02/24 00:03:19;;;;;;;;;;;;;;;28.26;69.33;101070.28;5090866;27;66488;-41
2023/02/24 00:05:49;;;;;;;;;;;;;;;28.15;70.39;101066.25;5096326;27;69686;-42
2023/02/24 00:08:19;;;;;;;;;;;;;;;28.01;71.84;101069.91;5093555;27;66560;-42
2023/02/24 00:10:49;;;;;;;;;;;;;;;27.90;72.57;101084.75;5091765;27;70027;-41
2023/02/24 00:13:21;;;;;;;;;;;;;;;27.84;73.03;101083.66;5087578;27;66636;-43
2023/02/24 00:15:57;;;;;;;;;;;;;;;27.82;73.11;101087.56;5091284;27;69837;-43
2023/02/24 00:18:27;;;;;;;;;;;;;;;27.91;73.07;101090.97;5094136;27;66522;-42
2023/02/24 00:21:09;;;;;;;;;;;;;;;28.02;72.78;101093.94;5068971;27;70276;-43
2023/02/24 00:23:40;;;;;;;;;;;;;;;28.09;72.33;101093.19;5090898;27;66795;-41
2023/02/24 00:26:11;;;;;;;;;;;;;;;28.16;72.03;101104.84;5057232;27;70571;-40
2023/02/24 00:28:43;;;;;;;;;;;;;;;28.21;71.74;101105.09;5093286;27;65979;-42
2023/02/24 00:31:15;;;;;;;;;;;;;;;28.23;71.44;101109.25;5085331;27;70877;-40
2023/02/24 00:33:46;;;;;;;;;;;;;;;28.24;70.94;101118.19;5073728;27;66665;-42
2023/02/24 00:36:22;;;;;;;;;;;;;;;28.26;70.90;101116.13;5096408;27;69974;-41
2023/02/24 00:38:56;;;;;;;;;;;;;;;28.29;70.52;101115.72;5092879;27;66837;-41
2023/02/24 00:41:30;;;;;;;;;;;;;;;28.33;70.40;101125.09;5095838;27;70049;-42
2023/02/24 00:44:06;;;;;;;;;;;;;;;28.36;70.80;101119.31;5092563;27;66659;-41
2023/02/24 00:46:37;;;;;;;;;;;;;;;28.35;70.62;101124.91;5082433;27;69726;-39
2023/02/24 00:49:11;;;;;;;;;;;;;;;28.32;68.71;101114.50;5080033;27;66659;-38
2023/02/24 00:51:42;;;;;;;;;;;;;;;28.34;67.97;101126.78;5077678;27;68778;-39
2023/02/24 00:54:13;;;;;;;;;;;;;;;28.36;67.43;101127.41;5092180;27;67568;-39
2023/02/24 00:56:44;;;;;;;;;;;;;;;28.38;67.29;101130.72;5075145;27;69821;-40
2023/02/24 00:59:17;;;;;;;;;;;;;;;28.40;66.92;101139.47;5091400;27;66988;-38
2023/02/24 01:01:49;;;;;;;;;;;;;;;28.41;66.68;101141.13;5068309;27;69987;-39
2023/02/24 01:04:20;;;;;;;;;;;;;;;28.43;66.49;101144.50;5093487;27;64694;-39
2023/02/24 01:06:51;;;;;;;;;;;;;;;28.45;66.14;101147.00;5076335;27;70007;-39
2023/02/24 01:09:21;;;;;;;;;;;;;;;28.46;66.25;101138.69;5071297;27;66151;-40
2023/02/24 01:14:39;;;;;;;;;;;;;;;28.50;65.72;101160.72;5076340;27;66452;-39
2023/02/24 01:17:10;;;;;;;;;;;;;;;28.28;65.71;101114.06;5083741;27;69598;-39
2023/02/24 01:19:44;;;;;;;;;;;;;;;28.54;65.76;101163.88;5087925;27;65849;-39
2023/02/24 01:22:15;;;;;;;;;;;;;;;28.54;65.22;101172.81;5070816;27;70172;-39
2023/02/24 01:24:47;;;;;;;;;;;;;;;28.56;65.34;101169.91;5092518;27;65777;-39
2023/02/24 01:27:18;;;;;;;;;;;;;;;28.57;64.73;101169.72;5084800;27;70075;-39
2023/02/24 01:29:48;;;;;;;;;;;;;;;28.58;64.92;101167.84;5093188;27;66432;-39
2023/02/24 01:32:20;;;;;;;;;;;;;;;28.59;64.47;101174.91;5071095;27;70217;-39
2023/02/24 01:34:51;;;;;;;;;;;;;;;28.60;64.90;101176.56;5071385;27;66405;-40
2023/02/24 01:37:21;;;;;;;;;;;;;;;28.61;64.38;101170.13;5078288;27;69955;-39
2023/02/24 01:39:51;;;;;;;;;;;;;;;28.63;64.25;101176.19;5087933;27;66626;-39
2023/02/24 01:42:22;;;;;;;;;;;;;;;28.64;64.41;101178.69;5079151;27;69327;-39
2023/02/24 01:44:52;;;;;;;;;;;;;;;28.65;64.18;101185.75;5060889;27;66303;-39
2023/02/24 01:47:27;;;;;;;;;;;;;;;28.66;64.02;101176.59;5076509;27;70259;-38
2023/02/24 01:49:57;;;;;;;;;;;;;;;28.67;64.43;101189.09;5090001;27;66361;-39
2023/02/24 01:52:30;;;;;;;;;;;;;;;28.69;63.75;101187.00;5081091;27;70527;-40
2023/02/24 01:55:01;;;;;;;;;;;;;;;28.70;63.73;101180.59;5074495;27;66978;-40
2023/02/24 01:57:33;;;;;;;;;;;;;;;28.72;63.96;101185.78;5089632;27;70095;-40
2023/02/24 02:00:18;;;;;;;;;;;;;;;28.74;63.58;101194.53;5084518;27;65696;-39
2023/02/24 02:02:51;;;;;;;;;;;;;;;28.75;63.47;101188.06;5087016;27;69486;-41
2023/02/24 02:05:21;;;;;;;;;;;;;;;28.76;63.72;101189.75;5090985;27;66129;-39
2023/02/24 02:07:52;;;;;;;;;;;;;;;28.77;63.70;101183.31;5068472;27;70024;-39
2023/02/24 02:10:22;;;;;;;;;;;;;;;28.78;63.58;101190.41;5073139;27;66095;-40
2023/02/24 02:12:52;;;;;;;;;;;;;;;28.80;63.64;101191.03;5088293;27;69284;-39
2023/02/24 02:15:23;;;;;;;;;;;;;;;28.81;63.55;101184.59;5079561;27;66354;-41
2023/02/24 02:18:02;;;;;;;;;;;;;;;28.83;63.20;101187.09;5095702;27;69486;-40
2023/02/24 02:20:55;;;;;;;;;;;;;;;28.84;63.09;101184.22;5095408;27;66640;-39
2023/02/24 02:23:48;;;;;;;;;;;;;;;28.86;63.25;101186.69;5087470;27;69796;-41
2023/02/24 02:26:39;;;;;;;;;;;;;;;28.88;62.93;101190.84;5069343;27;65631;-39
2023/02/24 02:29:12;;;;;;;;;;;;;;;28.91;62.81;101184.22;5083372;27;70414;-39
2023/02/24 02:31:57;;;;;;;;;;;;;;;28.91;62.72;101187.75;5078117;27;64646;-39
2023/02/24 02:34:36;;;;;;;;;;;;;;;28.94;62.79;101187.34;5091580;27;70720;-39
2023/02/24 02:37:24;;;;;;;;;;;;;;;28.95;62.98;101191.75;5084348;27;66032;-40
2023/02/24 02:40:15;;;;;;;;;;;;;;;28.98;62.43;101195.91;5080181;27;71729;-39
2023/02/24 02:42:46;;;;;;;;;;;;;;;29.00;62.37;101188.41;5088702;27;66784;-38
2023/02/24 02:45:39;;;;;;;;;;;;;;;29.02;62.81;101185.53;5091358;27;70101;-39
2023/02/24 02:48:30;;;;;;;;;;;;;;;29.05;62.31;101179.75;5075316;27;65566;-39
2023/02/24 02:51:10;;;;;;;;;;;;;;;29.06;62.37;101176.00;5086637;27;70732;-39
2023/02/24 02:53:51;;;;;;;;;;;;;;;29.09;62.72;101167.53;5083157;27;66394;-39
2023/02/24 02:56:24;;;;;;;;;;;;;;;29.11;62.17;101168.16;5095236;27;70412;-40
2023/02/24 02:58:56;;;;;;;;;;;;;;;29.13;62.48;101163.38;5070840;27;66357;-39
2023/02/24 03:01:30;;;;;;;;;;;;;;;29.15;62.02;101164.03;5095891;27;69664;-40
2023/02/24 03:04:03;;;;;;;;;;;;;;;29.16;62.18;101160.28;5074937;27;67128;-38
2023/02/24 03:06:36;;;;;;;;;;;;;;;29.17;62.29;101156.56;5076684;27;70845;-39
2023/02/24 03:09:17;;;;;;;;;;;;;;;29.20;62.20;101150.75;5093587;27;66738;-40
2023/02/24 03:12:01;;;;;;;;;;;;;;;29.23;61.73;101150.34;5083199;27;70269;-39
2023/02/24 03:14:36;;;;;;;;;;;;;;;29.26;62.17;101144.53;5084516;27;65729;-40
2023/02/24 03:17:08;;;;;;;;;;;;;;;29.28;61.55;101150.56;5092846;27;69825;-38
2023/02/24 03:19:39;;;;;;;;;;;;;;;29.30;61.52;101150.34;5076810;27;66271;-39
2023/02/24 03:22:11;;;;;;;;;;;;;;;29.32;61.96;101150.97;5073306;27;70783;-39
2023/02/24 03:24:43;;;;;;;;;;;;;;;29.33;61.35;101142.66;5071819;27;66709;-39
2023/02/24 03:27:28;;;;;;;;;;;;;;;29.36;61.67;101138.72;5076215;27;69738;-39
2023/02/24 03:30:01;;;;;;;;;;;;;;;29.38;61.31;101131.25;5081297;27;65465;-40
2023/02/24 03:32:42;;;;;;;;;;;;;;;29.41;61.01;101125.44;5082621;27;69411;-39
2023/02/24 03:35:16;;;;;;;;;;;;;;;29.44;61.48;101129.59;5074755;27;65718;-41
2023/02/24 03:37:47;;;;;;;;;;;;;;;29.45;61.46;101120.44;5058035;27;70280;-40
2023/02/24 03:40:19;;;;;;;;;;;;;;;29.47;61.13;101121.06;5078078;27;67123;-42
2023/02/24 03:42:51;;;;;;;;;;;;;;;29.50;60.90;101117.97;5060505;27;70563;-39
2023/02/24 03:45:22;;;;;;;;;;;;;;;29.51;61.09;101114.25;5080381;27;66613;-39
2023/02/24 03:47:54;;;;;;;;;;;;;;;29.54;61.15;101111.13;5098352;27;70933;-42
2023/02/24 03:50:30;;;;;;;;;;;;;;;29.56;61.00;101106.31;5088139;27;66435;-41
2023/02/24 03:53:29;;;;;;;;;;;;;;;29.58;60.93;101105.06;5072293;27;69915;-39
2023/02/24 03:56:12;;;;;;;;;;;;;;;29.60;60.83;101100.31;5076217;27;66945;-40
2023/02/24 03:58:53;;;;;;;;;;;;;;;29.64;60.29;101091.81;5072023;27;70287;-40
2023/02/24 04:01:40;;;;;;;;;;;;;;;29.66;60.56;101087.03;5063208;27;66838;-40
2023/02/24 04:04:12;;;;;;;;;;;;;;;29.68;60.44;101083.09;5069104;27;69437;-41
2023/02/24 04:06:56;;;;;;;;;;;;;;;29.70;60.06;101080.16;5091006;27;66548;-41
2023/02/24 04:09:33;;;;;;;;;;;;;;;29.72;59.93;101073.50;5086597;27;70716;-39
2023/02/24 04:12:18;;;;;;;;;;;;;;;29.74;59.95;101071.44;5083425;27;67202;-40
2023/02/24 04:14:56;;;;;;;;;;;;;;;29.77;60.19;101059.38;5070848;27;69748;-39
2023/02/24 04:17:32;;;;;;;;;;;;;;;29.79;60.22;101060.00;5056964;27;66680;-39
2023/02/24 04:20:16;;;;;;;;;;;;;;;29.80;59.83;101054.38;5076397;27;69016;-40
2023/02/24 04:22:55;;;;;;;;;;;;;;;29.83;59.53;101048.53;5071428;27;65798;-40
2023/02/24 04:25:26;;;;;;;;;;;;;;;29.86;59.98;101046.47;5093499;27;69069;-41
2023/02/24 04:27:58;;;;;;;;;;;;;;;29.89;59.84;101041.47;5073095;27;66867;-39
2023/02/24 04:30:31;;;;;;;;;;;;;;;29.90;59.71;101036.91;5076373;27;70086;-39
2023/02/24 04:33:01;;;;;;;;;;;;;;;29.92;59.29;101034.81;5073542;27;67381;-39
2023/02/24 04:35:31;;;;;;;;;;;;;;;29.91;59.29;101043.97;5085338;27;70758;-40
2023/02/24 04:38:02;;;;;;;;;;;;;;;29.87;60.46;101032.75;5091222;27;66196;-40
2023/02/24 04:40:32;;;;;;;;;;;;;;;29.80;61.42;101030.03;5070171;27;69639;-40
2023/02/24 04:43:02;;;;;;;;;;;;;;;29.78;61.61;101020.47;5097003;27;67023;-40
2023/02/24 04:45:33;;;;;;;;;;;;;;;29.74;61.53;101020.06;5076158;27;67996;-42
2023/02/24 04:48:02;;;;;;;;;;;;;;;29.75;60.95;101005.50;5089528;27;66409;-41
2023/02/24 04:50:34;;;;;;;;;;;;;;;29.75;60.81;101012.78;5088259;27;69382;-40
2023/02/24 04:53:06;;;;;;;;;;;;;;;29.72;61.16;101003.22;5089983;27;66239;-42
2023/02/24 04:55:39;;;;;;;;;;;;;;;29.72;60.75;101000.50;5068204;27;69920;-40
2023/02/24 04:58:10;;;;;;;;;;;;;;;29.55;58.24;101004.66;5089067;27;66719;-40
2023/02/24 05:00:41;;;;;;;;;;;;;;;29.32;56.24;100995.09;5090587;27;70408;-40
2023/02/24 05:03:11;;;;;;;;;;;;;;;29.16;54.43;100987.38;5096571;27;66772;-40
2023/02/24 05:06:01;;;;;;;;;;;;;;;29.00;53.03;100982.34;5094956;27;70593;-40
2023/02/24 05:08:31;;;;;;;;;;;;;;;28.85;51.46;100977.97;5096036;27;66712;-40
2023/02/24 05:11:04;;;;;;;;;;;;;;;28.73;49.93;100968.81;5084804;27;70016;-40
2023/02/24 05:13:36;;;;;;;;;;;;;;;28.62;49.37;100974.78;5094247;27;66485;-40
2023/02/24 05:16:07;;;;;;;;;;;;;;;28.51;48.05;100968.94;5094157;27;69991;-42
2023/02/24 05:18:38;;;;;;;;;;;;;;;28.44;47.37;100969.94;5079188;27;66386;-40
2023/02/24 05:24:05;;;;;;;;;;;;;;;28.31;46.73;100957.22;5086279;27;66653;-40
2023/02/24 05:26:36;;;;;;;;;;;;;;;28.24;46.10;100942.84;5091092;27;70335;-39
2023/02/24 05:29:06;;;;;;;;;;;;;;;28.18;45.75;100947.19;5065089;27;66481;-40
2023/02/24 05:31:36;;;;;;;;;;;;;;;28.11;45.29;100942.78;5089524;27;69481;-39
2023/02/24 05:34:07;;;;;;;;;;;;;;;28.07;45.11;100945.88;5087721;27;66107;-41
2023/02/24 05:36:39;;;;;;;;;;;;;;;28.05;44.58;100942.56;5090512;27;70580;-39
2023/02/24 05:39:11;;;;;;;;;;;;;;;28.00;44.38;100931.56;5094061;27;66982;-39
2023/02/24 05:41:42;;;;;;;;;;;;;;;28.01;44.85;100925.13;5086963;27;70720;-40
2023/02/24 05:44:14;;;;;;;;;;;;;;;27.96;44.15;100927.56;5080570;27;65975;-39
2023/02/24 05:46:46;;;;;;;;;;;;;;;28.00;44.02;100915.38;5089572;27;70233;-40
2023/02/24 05:49:22;;;;;;;;;;;;;;;27.96;43.58;100927.56;5087580;27;66987;-41
2023/02/24 05:51:53;;;;;;;;;;;;;;;27.97;43.44;100918.47;5090778;27;70564;-39
2023/02/24 05:54:27;;;;;;;;;;;;;;;27.98;43.43;100917.44;5094987;27;65961;-45
2023/02/24 05:57:11;;;;;;;;;;;;;;;27.98;43.08;100909.34;5095696;27;69590;-48
2023/02/24 05:59:43;;;;;;;;;;;;;;;27.96;42.90;100897.91;5075841;27;66288;-40
2023/02/24 06:02:15;;;;;;;;;;;;;;;27.96;42.37;100897.91;5089783;27;70319;-39
2023/02/24 06:04:52;;;;;;;;;;;;;;;27.97;42.29;100888.81;5093899;27;65406;-39
2023/02/24 06:07:24;;;;;;;;;;;;;;;27.97;42.19;100880.72;5087983;27;69856;-40
2023/02/24 06:09:56;;;;;;;;;;;;;;;27.96;42.31;100879.03;5089212;27;66160;-39
2023/02/24 06:12:29;;;;;;;;;;;;;;;27.97;41.94;100879.88;5091636;27;70188;-40
2023/02/24 06:15:01;;;;;;;;;;;;;;;27.99;41.77;100870.53;5093024;27;65520;-41
2023/02/24 06:17:31;;;;;;;;;;;;;;;27.97;41.79;100864.53;5098704;27;70296;-38
2023/02/24 06:20:11;;;;;;;;;;;;;;;28.02;41.86;100867.44;5093127;27;66795;-39
2023/02/24 06:22:41;;;;;;;;;;;;;;;28.15;41.58;100863.97;5078731;27;70069;-37
2023/02/24 06:25:11;;;;;;;;;;;;;;;28.24;41.06;100864.63;5086086;27;66872;-41
2023/02/24 06:27:41;;;;;;;;;;;;;;;28.26;40.67;100854.47;5090058;27;70685;-37
2023/02/24 06:30:14;;;;;;;;;;;;;;;28.31;40.39;100854.69;5098370;27;65517;-38
2023/02/24 06:32:43;;;;;;;;;;;;;;;28.33;40.58;100852.59;5074885;27;70144;-38
2023/02/24 06:35:14;;;;;;;;;;;;;;;28.33;40.30;100849.91;5087540;27;66923;-37
2023/02/24 06:37:45;;;;;;;;;;;;;;;28.35;39.98;100838.94;5099170;27;70244;-38
2023/02/24 06:40:15;;;;;;;;;;;;;;;28.36;40.21;100836.03;5097540;27;66736;-38
2023/02/24 06:42:48;;;;;;;;;;;;;;;28.35;39.74;100839.75;5095735;27;69984;-40
2023/02/24 06:45:19;;;;;;;;;;;;;;;28.38;39.68;100833.94;5069932;27;67232;-40
2023/02/24 06:47:49;;;;;;;;;;;;;;;28.38;39.92;100828.56;5090307;27;70300;-38
2023/02/24 06:50:19;;;;;;;;;;;;;;;28.40;39.16;100829.19;5098409;27;66697;-40
2023/02/24 06:52:52;;;;;;;;;;;;;;;28.44;39.03;100819.66;5096046;27;69886;-40
2023/02/24 06:55:25;;;;;;;;;;;;;;;28.47;39.18;100811.19;5078294;27;65375;-39
2023/02/24 06:57:56;;;;;;;;;;;;;;;28.52;39.12;100816.78;5089483;27;70585;-42
2023/02/24 07:00:35;;;;;;;;;;;;;;;28.54;39.16;100811.19;5092307;27;65951;-40
2023/02/24 07:03:15;;;;;;;;;;;;;;;28.57;38.80;100808.06;5099258;27;70553;-41
2023/02/24 07:05:52;;;;;;;;;;;;;;;28.56;38.61;100809.13;5096230;27;66905;-39
2023/02/24 07:08:24;;;;;;;;;;;;;;;28.58;38.59;100800.78;5101282;27;70082;-39
2023/02/24 07:10:54;;;;;;;;;;;;;;;28.60;38.83;100790.63;5065028;27;66528;-40
2023/02/24 07:13:28;;;;;;;;;;;;;;;28.61;38.52;100787.75;5096338;27;70160;-41
2023/02/24 07:16:05;;;;;;;;;;;;;;;28.66;38.64;100776.31;5096509;27;64867;-40
2023/02/24 07:18:39;;;;;;;;;;;;;;;28.71;38.66;100779.22;5086205;27;69880;-40
2023/02/24 07:21:15;;;;;;;;;;;;;;;28.72;38.69;100786.25;5075004;27;65920;-41
2023/02/24 07:23:48;;;;;;;;;;;;;;;28.72;38.60;100775.47;5087442;27;69141;-42
2023/02/24 07:26:21;;;;;;;;;;;;;;;28.78;38.22;100769.25;5093074;27;66284;-41
2023/02/24 07:28:53;;;;;;;;;;;;;;;28.82;38.50;100765.09;5092425;27;69214;-41
2023/02/24 07:31:24;;;;;;;;;;;;;;;28.85;38.53;100753.88;5094329;27;64110;-41
2023/02/24 07:34:00;;;;;;;;;;;;;;;28.88;37.88;100758.00;5088945;27;69709;-39
2023/02/24 07:36:37;;;;;;;;;;;;;;;28.88;38.19;100752.63;5087534;27;67105;-38
2023/02/24 07:39:08;;;;;;;;;;;;;;;28.91;37.96;100755.72;5090754;27;70934;-41
2023/02/24 07:41:45;;;;;;;;;;;;;;;28.92;37.85;100746.59;5072773;27;66531;-40
2023/02/24 07:44:19;;;;;;;;;;;;;;;28.93;37.60;100750.13;5083559;27;70461;-40
2023/02/24 07:46:50;;;;;;;;;;;;;;;28.94;37.61;100754.47;5090537;27;65803;-39
2023/02/24 07:49:22;;;;;;;;;;;;;;;29.00;37.39;100750.09;5094782;27;70153;-39
2023/02/24 07:51:56;;;;;;;;;;;;;;;29.02;37.38;100748.03;5089739;27;65579;-40
2023/02/24 07:54:28;;;;;;;;;;;;;;;29.03;37.71;100745.16;5092966;27;70318;-40
2023/02/24 07:56:58;;;;;;;;;;;;;;;29.02;37.46;100738.03;5089241;27;66230;-39
2023/02/24 07:59:31;;;;;;;;;;;;;;;29.04;37.87;100740.59;5092141;27;70380;-39
2023/02/24 08:02:03;;;;;;;;;;;;;;;29.04;37.53;100735.19;5089809;27;65759;-39
2023/02/24 08:04:35;;;;;;;;;;;;;;;29.10;37.59;100720.81;5090524;27;70156;-39
2023/02/24 08:07:11;;;;;;;;;;;;;;;29.02;37.54;100721.03;5088239;27;66126;-40
2023/02/24 08:10:08;;;;;;;;;;;;;;;29.23;46.24;100728.91;5085583;27;70523;-42
2023/02/24 08:12:41;;;;;;;;;;;;;;;29.47;48.98;100735.44;5095932;27;65229;-41
2023/02/24 08:15:22;;;;;;;;;;;;;;;29.65;51.14;100729.38;5093393;27;70019;-40
2023/02/24 08:17:58;;;;;;;;;;;;;;;29.79;51.02;100725.56;5094038;27;67571;-40
2023/02/24 08:20:34;;;;;;;;;;;;;;;29.91;51.30;100730.28;5091453;27;70121;-40
2023/02/24 08:23:07;;;;;;;;;;;;;;;30.01;51.55;100730.63;5089365;27;65851;-39
2023/02/24 08:25:43;;;;;;;;;;;;;;;30.11;52.07;100725.53;5088416;27;70150;-39
2023/02/24 08:28:13;;;;;;;;;;;;;;;30.22;52.12;100727.56;5093534;27;66196;-39
2023/02/24 08:30:45;;;;;;;;;;;;;;;30.30;52.35;100736.47;5089647;27;69981;-40
2023/02/24 08:33:20;;;;;;;;;;;;;;;30.38;52.66;100725.38;5088209;27;66301;-40
2023/02/24 08:35:51;;;;;;;;;;;;;;;30.46;52.86;100728.66;5090909;27;70291;-39
2023/02/24 08:38:22;;;;;;;;;;;;;;;30.55;53.16;100731.91;5055483;27;66372;-39
2023/02/24 08:40:56;;;;;;;;;;;;;;;30.62;53.31;100737.25;5074740;27;70218;-40
2023/02/24 08:46:16;;;;;;;;;;;;;;;30.76;53.47;100749.63;5093197;27;69747;-40
2023/02/24 08:48:48;;;;;;;;;;;;;;;30.80;54.10;100748.16;5089480;27;66836;-39
2023/02/24 08:51:42;;;;;;;;;;;;;;;30.86;54.07;100755.38;5091365;27;70256;-39
2023/02/24 08:54:14;;;;;;;;;;;;;;;30.94;54.25;100754.28;5084006;27;67095;-39
2023/02/24 08:56:54;;;;;;;;;;;;;;;30.99;54.30;100762.56;5068931;27;69779;-39
2023/02/24 08:59:36;;;;;;;;;;;;;;;31.05;54.55;100758.13;5076485;27;66661;-40
2023/02/24 09:02:23;;;;;;;;;;;;;;;31.07;54.76;100761.44;5088034;27;63435;-41
2023/02/24 09:04:54;;;;;;;;;;;;;;;31.11;54.67;100758.03;5087318;27;66845;-41
2023/02/24 09:07:28;;;;;;;;;;;;;;;31.14;54.99;100763.00;5074960;27;69981;-42
2023/02/24 09:09:58;;;;;;;;;;;;;;;31.20;54.70;100772.13;5087019;27;66557;-43
2023/02/24 09:12:29;;;;;;;;;;;;;;;31.22;54.80;100770.03;5093768;27;70369;-41
2023/02/24 09:15:03;;;;;;;;;;;;;;;31.28;54.83;100779.13;5093076;27;67021;-41
2023/02/24 09:17:39;;;;;;;;;;;;;;;31.32;55.17;100780.34;5091088;27;70292;-40
2023/02/24 09:25:39;;;;;;;;;;;;;;;31.40;54.67;100782.78;5091190;27;66511;-40
2023/02/24 09:28:15;;;;;;;;;;;;;;;31.43;54.54;100793.19;5086113;27;70508;-41
2023/02/24 09:30:49;;;;;;;;;;;;;;;31.44;54.79;100794.81;5093180;27;66448;-40
2023/02/24 09:33:37;;;;;;;;;;;;;;;31.45;54.85;100796.47;5087994;27;70316;-40
2023/02/24 09:36:08;;;;;;;;;;;;;;;31.69;54.15;100807.47;5092417;27;65666;-41
2023/02/24 09:41:30;;;;;;;;;;;;;;;31.97;53.09;100805.03;5097728;27;66541;-41
2023/02/24 09:44:06;;;;;;;;;;;;;;;32.08;52.69;100810.75;5090540;27;70540;-40
2023/02/24 09:46:52;;;;;;;;;;;;;;;32.16;52.45;100821.28;5093682;27;66606;-41
2023/02/24 09:49:38;;;;;;;;;;;;;;;32.22;52.00;100818.47;5071081;27;69761;-40
2023/02/24 09:52:17;;;;;;;;;;;;;;;32.27;51.85;100823.19;5083920;27;66182;-43
2023/02/24 09:57:54;;;;;;;;;;;;;;;32.36;51.57;100824.53;5101748;27;66418;-40
2023/02/24 10:00:24;;;;;;;;;;;;;;;32.39;51.34;100834.09;5092190;27;70652;-40
2023/02/24 10:03:18;;;;;;;;;;;;;;;32.39;51.11;100829.47;5094955;27;65526;-40
2023/02/24 10:05:57;;;;;;;;;;;;;;;32.41;51.01;100832.81;5087631;27;70318;-41
2023/02/24 10:08:37;;;;;;;;;;;;;;;32.29;52.15;100845.53;5097186;27;66234;-40
2023/02/24 10:11:09;;;;;;;;;;;;;;;32.07;53.11;100849.78;5092382;27;69418;-41
2023/02/24 10:13:53;;;;;;;;;;;;;;;31.90;53.14;100853.09;5092415;27;65518;-42
2023/02/24 10:16:24;;;;;;;;;;;;;;;31.82;53.62;100864.28;5079437;27;70256;-44
2023/02/24 10:19:10;;;;;;;;;;;;;;;31.78;53.46;100861.16;5078479;27;67794;-41
2023/02/24 10:21:59;;;;;;;;;;;;;;;31.69;54.23;100865.25;5094649;27;70250;-41
2023/02/24 10:24:36;;;;;;;;;;;;;;;31.64;54.54;100870.50;5089039;27;66562;-42
2023/02/24 10:27:12;;;;;;;;;;;;;;;31.60;55.05;100875.56;5096552;27;70633;-40
2023/02/24 10:30:09;;;;;;;;;;;;;;;31.55;54.68;100878.13;5094703;27;65664;-40
2023/02/24 10:32:51;;;;;;;;;;;;;;;31.51;54.46;100887.78;5078133;27;70248;-42
2023/02/24 10:35:24;;;;;;;;;;;;;;;31.44;54.48;100875.31;5089666;27;65124;-40
2023/02/24 10:38:04;;;;;;;;;;;;;;;31.45;55.10;100883.22;5084388;27;70007;-40
2023/02/24 10:40:58;;;;;;;;;;;;;;;31.42;55.50;100891.81;5090898;27;67021;-40
2023/02/24 10:43:31;;;;;;;;;;;;;;;31.42;56.96;100891.81;5094810;27;69375;-40
2023/02/24 10:46:15;;;;;;;;;;;;;;;31.42;57.32;100893.69;5097031;27;67258;-40
2023/02/24 10:48:59;;;;;;;;;;;;;;;31.42;57.37;100899.09;5095816;27;69836;-41
2023/02/24 10:51:31;;;;;;;;;;;;;;;31.42;58.11;100894.50;5088324;27;66570;-40
2023/02/24 10:54:33;;;;;;;;;;;;;;;31.42;57.92;100904.53;5092230;27;69843;-41
2023/02/24 10:57:06;;;;;;;;;;;;;;;31.41;57.69;100898.28;5089986;27;66517;-41
2023/02/24 11:03:09;;;;;;;;;;;;;;;31.38;58.12;100907.69;5092859;27;65704;-41
2023/02/24 11:06:29;;;;;;;;;;;;;;;31.38;58.42;100904.16;5092114;27;68898;-42
2023/02/24 11:08:42;;;;;;;;;;;;;;;31.38;58.37;100909.56;5048640;27;66499;-42
2023/02/24 11:17:13;;;;;;;;;;;;;;;31.36;58.46;100904.38;5087814;27;70838;-42
2023/02/24 11:17:17;;;;;;;;;;;;;;;31.36;58.88;100906.25;5095630;27;69867;-40
2023/02/24 11:19:53;;;;;;;;;;;;;;;31.56;58.06;100912.28;5091121;27;66491;-41
2023/02/24 11:22:27;;;;;;;;;;;;;;;31.66;57.05;100911.78;5073770;27;70355;-41
2023/02/24 11:24:59;;;;;;;;;;;;;;;31.74;56.61;100913.38;5096378;27;66717;-39
2023/02/24 11:27:29;;;;;;;;;;;;;;;31.79;56.49;100914.38;5075121;27;70570;-41
2023/02/24 11:30:06;;;;;;;;;;;;;;;31.85;56.27;100919.94;5094235;27;65685;-40
2023/02/24 11:32:54;;;;;;;;;;;;;;;31.86;55.62;100917.00;5089608;27;70176;-49
2023/02/24 11:35:30;;;;;;;;;;;;;;;31.90;55.44;100920.06;5094121;27;66142;-48
2023/02/24 11:38:06;;;;;;;;;;;;;;;31.91;55.45;100919.03;5093759;27;71124;-41
2023/02/24 11:40:40;;;;;;;;;;;;;;;31.89;55.18;100921.97;5095019;27;66579;-39
2023/02/24 11:43:10;;;;;;;;;;;;;;;31.84;56.23;100929.94;5076152;27;70094;-42
2023/02/24 11:45:45;;;;;;;;;;;;;;;31.64;56.93;100930.16;5090595;27;66515;-40
2023/02/24 11:48:18;;;;;;;;;;;;;;;31.53;57.31;100942.56;5091816;27;69921;-40
2023/02/24 11:50:57;;;;;;;;;;;;;;;31.44;57.10;100946.63;5090294;27;67236;-39
2023/02/24 11:53:27;;;;;;;;;;;;;;;31.37;57.52;100943.13;5085547;27;70293;-42
2023/02/24 11:56:16;;;;;;;;;;;;;;;31.10;57.88;100913.53;5091574;27;66723;-42
2023/02/24 11:59:04;;;;;;;;;;;;;;;31.29;57.59;100943.41;5091132;27;70061;-41
2023/02/24 12:01:39;;;;;;;;;;;;;;;31.24;57.75;100946.78;5087931;27;66898;-40
2023/02/24 12:04:11;;;;;;;;;;;;;;;31.22;57.92;100948.88;5089291;27;69837;-42
2023/02/24 12:06:47;;;;;;;;;;;;;;;31.16;58.41;100945.16;5080802;27;66332;-40
2023/02/24 12:09:22;;;;;;;;;;;;;;;31.15;57.94;100954.34;5078024;27;69875;-39
2023/02/24 12:11:58;;;;;;;;;;;;;;;31.12;58.39;100949.38;5070051;27;66544;-41
2023/02/24 12:14:34;;;;;;;;;;;;;;;31.09;58.19;100955.25;5086836;27;70652;-40
2023/02/24 12:17:09;;;;;;;;;;;;;;;31.06;58.17;100954.84;5066097;27;66519;-40
2023/02/24 12:19:59;;;;;;;;;;;;;;;31.05;58.09;100964.03;5084450;27;70900;-41
2023/02/24 12:22:59;;;;;;;;;;;;;;;31.02;58.08;100962.56;5084733;27;67201;-42
2023/02/24 12:25:31;;;;;;;;;;;;;;;31.00;57.89;100961.97;5090895;27;70340;-40
2023/02/24 12:28:17;;;;;;;;;;;;;;;30.98;57.96;100965.94;5086250;27;66935;-41
2023/02/24 12:30:56;;;;;;;;;;;;;;;30.95;58.54;100964.50;5089380;27;69267;-39
2023/02/24 12:33:37;;;;;;;;;;;;;;;30.95;57.69;100969.91;5092724;27;65919;-40
2023/02/24 12:36:21;;;;;;;;;;;;;;;30.91;58.27;100974.94;5096201;27;69881;-40
2023/02/24 12:39:28;;;;;;;;;;;;;;;30.89;58.83;100978.91;5091288;27;66703;-40
2023/02/24 12:42:06;;;;;;;;;;;;;;;30.85;58.86;100981.25;5048589;28;70126;-40
2023/02/24 12:44:43;;;;;;;;;;;;;;;30.85;58.75;100975.00;5083656;27;66656;-41
2023/02/24 12:47:15;;;;;;;;;;;;;;;30.84;59.21;100986.84;5076637;27;70779;-42
2023/02/24 12:49:59;;;;;;;;;;;;;;;30.90;58.98;100980.59;5076520;27;66114;-40
2023/02/24 12:52:38;;;;;;;;;;;;;;;31.03;58.19;100983.19;5094730;27;70596;-41
2023/02/24 12:55:21;;;;;;;;;;;;;;;31.09;57.96;100989.63;5082955;27;66298;-39
2023/02/24 12:57:59;;;;;;;;;;;;;;;31.12;57.63;100989.16;5090924;27;69757;-41
2023/02/24 13:00:50;;;;;;;;;;;;;;;31.14;57.13;100996.03;5074593;27;66493;-39
2023/02/24 13:03:39;;;;;;;;;;;;;;;31.19;56.94;101002.69;5089712;27;69690;-39
2023/02/24 13:06:15;;;;;;;;;;;;;;;31.21;57.06;101000.59;5096719;27;65688;-40
2023/02/24 13:09:09;;;;;;;;;;;;;;;31.23;57.05;101006.59;5095012;27;70315;-39
2023/02/24 13:11:46;;;;;;;;;;;;;;;31.22;56.74;101013.09;5087257;27;65425;-41
2023/02/24 13:14:20;;;;;;;;;;;;;;;31.23;56.41;101020.16;5091933;27;69450;-39
2023/02/24 13:16:50;;;;;;;;;;;;;;;31.08;57.72;101024.00;5087345;27;66135;-39
2023/02/24 13:19:27;;;;;;;;;;;;;;;30.79;55.56;101022.69;5091740;27;70877;-39
2023/02/24 13:22:12;;;;;;;;;;;;;;;30.53;53.82;101026.34;5083552;27;65633;-41
2023/02/24 13:24:54;;;;;;;;;;;;;;;30.26;51.85;101031.88;5071048;27;70347;-39
2023/02/24 13:27:25;;;;;;;;;;;;;;;30.06;50.79;101036.44;5089625;27;66868;-41
2023/02/24 13:29:57;;;;;;;;;;;;;;;29.91;49.06;101039.38;5092258;27;69743;-40
2023/02/24 13:32:35;;;;;;;;;;;;;;;29.75;48.05;101040.66;5067605;27;66455;-41
2023/02/24 13:35:14;;;;;;;;;;;;;;;29.63;47.71;101045.03;5088499;27;69654;-41
2023/02/24 13:37:45;;;;;;;;;;;;;;;29.53;46.77;101052.69;5091009;27;65785;-41
2023/02/24 13:40:17;;;;;;;;;;;;;;;29.56;50.16;101053.13;5085731;27;69986;-40
2023/02/24 13:42:57;;;;;;;;;;;;;;;29.64;51.18;101060.19;5085466;27;66308;-42
2023/02/24 13:45:29;;;;;;;;;;;;;;;29.76;52.11;101069.38;5088982;27;68644;-42